Tijucas Do Sul, Brazil
Current Conditions -  °F | °C
As of 8:00 AM on Saturday 20 Dec 2014 (Local Time) from SBCT Reporting Station
Broken Clouds Broken Clouds  
Wind Chill: 20°   Ceiling: 1000
Heat Index: 20°   Visibility: 6mi
Dew Point: 18°   Wind: 6mph
Humidity: 88%   Direction: 30°NNE
Pressure: 29.94"   Gusts: NA
Location:  25.93°S, 49.18°W
Report Text: SBCT 201000Z 03005KT 9999 SCT007 BKN010 20/18 Q1014
Loading
Personal Weather Stations






























Interactive Weather Map New forecast layout! Learn more

10-Day Weather Forecast

Advertisements
Track Severe Weather on mobile